sensor_id;sensor_type;location;lat;lon;timestamp;temperature;humidity
68681;DHT22;55836;49.858;6.756;2023-09-12T00:00:02;19.80;99.90
68681;DHT22;55836;49.858;6.756;2023-09-12T00:02:30;19.80;99.90
68681;DHT22;55836;49.858;6.756;2023-09-12T00:04:56;19.80;99.90
68681;DHT22;55836;49.858;6.756;2023-09-12T00:07:21;19.80;99.90
68681;DHT22;55836;49.858;6.756;2023-09-12T00:09:47;19.70;99.90
68681;DHT22;55836;49.858;6.756;2023-09-12T00:12:16;19.70;99.90
68681;DHT22;55836;49.858;6.756;2023-09-12T00:14:42;19.80;99.90
68681;DHT22;55836;49.858;6.756;2023-09-12T00:17:08;19.80;99.90
68681;DHT22;55836;49.858;6.756;2023-09-12T00:19:34;19.80;99.90
68681;DHT22;55836;49.858;6.756;2023-09-12T00:22:00;19.80;99.90
68681;DHT22;55836;49.858;6.756;2023-09-12T00:24:26;19.80;99.90
68681;DHT22;55836;49.858;6.756;2023-09-12T00:26:52;19.80;99.90
68681;DHT22;55836;49.858;6.756;2023-09-12T00:29:17;19.70;99.90
68681;DHT22;55836;49.858;6.756;2023-09-12T00:31:43;19.70;99.90
68681;DHT22;55836;49.858;6.756;2023-09-12T00:34:08;19.60;99.90
68681;DHT22;55836;49.858;6.756;2023-09-12T00:36:34;19.60;99.90
68681;DHT22;55836;49.858;6.756;2023-09-12T00:38:59;19.50;99.90
68681;DHT22;55836;49.858;6.756;2023-09-12T00:41:25;19.40;99.90
68681;DHT22;55836;49.858;6.756;2023-09-12T00:43:51;19.30;99.90
68681;DHT22;55836;49.858;6.756;2023-09-12T00:46:19;19.40;99.90
68681;DHT22;55836;49.858;6.756;2023-09-12T00:48:46;19.40;99.90
68681;DHT22;55836;49.858;6.756;2023-09-12T00:51:13;19.30;99.90
68681;DHT22;55836;49.858;6.756;2023-09-12T00:53:39;19.20;99.90
68681;DHT22;55836;49.858;6.756;2023-09-12T00:56:06;19.10;99.90
68681;DHT22;55836;49.858;6.756;2023-09-12T00:58:32;19.00;99.90
68681;DHT22;55836;49.858;6.756;2023-09-12T01:00:58;19.10;99.90
68681;DHT22;55836;49.858;6.756;2023-09-12T01:03:24;19.00;99.90
68681;DHT22;55836;49.858;6.756;2023-09-12T01:05:50;18.90;99.90
68681;DHT22;55836;49.858;6.756;2023-09-12T01:08:17;18.80;99.90
68681;DHT22;55836;49.858;6.756;2023-09-12T01:10:43;18.80;99.90
68681;DHT22;55836;49.858;6.756;2023-09-12T01:13:12;18.80;99.90
68681;DHT22;55836;49.858;6.756;2023-09-12T01:15:39;18.70;99.90
68681;DHT22;55836;49.858;6.756;2023-09-12T01:18:04;18.60;99.90
68681;DHT22;55836;49.858;6.756;2023-09-12T01:20:35;18.60;99.90
68681;DHT22;55836;49.858;6.756;2023-09-12T01:26:03;18.50;99.90
68681;DHT22;55836;49.858;6.756;2023-09-12T01:28:39;18.40;99.90
68681;DHT22;55836;49.858;6.756;2023-09-12T01:31:08;18.50;99.90
68681;DHT22;55836;49.858;6.756;2023-09-12T01:33:34;18.60;99.90
68681;DHT22;55836;49.858;6.756;2023-09-12T01:35:59;18.60;99.90
68681;DHT22;55836;49.858;6.756;2023-09-12T01:38:25;18.70;99.90
68681;DHT22;55836;49.858;6.756;2023-09-12T01:40:52;18.60;99.90
68681;DHT22;55836;49.858;6.756;2023-09-12T01:43:20;18.60;99.90
68681;DHT22;55836;49.858;6.756;2023-09-12T01:45:48;18.60;99.90
68681;DHT22;55836;49.858;6.756;2023-09-12T01:48:28;18.50;99.90
68681;DHT22;55836;49.858;6.756;2023-09-12T01:50:59;18.40;99.90
68681;DHT22;55836;49.858;6.756;2023-09-12T01:53:25;18.40;99.90
68681;DHT22;55836;49.858;6.756;2023-09-12T01:55:51;18.40;99.90
68681;DHT22;55836;49.858;6.756;2023-09-12T01:58:17;18.40;99.90
68681;DHT22;55836;49.858;6.756;2023-09-12T02:00:43;18.40;99.90
68681;DHT22;55836;49.858;6.756;2023-09-12T02:03:09;18.40;99.90
68681;DHT22;55836;49.858;6.756;2023-09-12T02:05:34;18.30;99.90
68681;DHT22;55836;49.858;6.756;2023-09-12T02:08:01;18.30;99.90
68681;DHT22;55836;49.858;6.756;2023-09-12T02:10:27;18.30;99.90
68681;DHT22;55836;49.858;6.756;2023-09-12T02:12:52;18.30;99.90
68681;DHT22;55836;49.858;6.756;2023-09-12T02:15:18;18.20;99.90
68681;DHT22;55836;49.858;6.756;2023-09-12T02:17:44;18.20;99.90
68681;DHT22;55836;49.858;6.756;2023-09-12T02:20:10;18.20;99.90
68681;DHT22;55836;49.858;6.756;2023-09-12T02:22:36;18.20;99.90
68681;DHT22;55836;49.858;6.756;2023-09-12T02:25:05;18.20;99.90
68681;DHT22;55836;49.858;6.756;2023-09-12T02:27:31;18.20;99.90
68681;DHT22;55836;49.858;6.756;2023-09-12T02:29:56;18.10;99.90
68681;DHT22;55836;49.858;6.756;2023-09-12T02:32:22;18.10;99.90
68681;DHT22;55836;49.858;6.756;2023-09-12T02:34:48;17.90;99.90
68681;DHT22;55836;49.858;6.756;2023-09-12T02:37:13;17.80;99.90
68681;DHT22;55836;49.858;6.756;2023-09-12T02:39:41;17.90;99.90
68681;DHT22;55836;49.858;6.756;2023-09-12T02:42:06;17.80;99.90
68681;DHT22;55836;49.858;6.756;2023-09-12T02:44:32;17.80;99.90
68681;DHT22;55836;49.858;6.756;2023-09-12T02:46:57;17.80;99.90
68681;DHT22;55836;49.858;6.756;2023-09-12T02:49:23;17.90;99.90
68681;DHT22;55836;49.858;6.756;2023-09-12T02:51:49;17.90;99.90
68681;DHT22;55836;49.858;6.756;2023-09-12T02:54:14;17.90;99.90
68681;DHT22;55836;49.858;6.756;2023-09-12T02:56:40;17.80;99.90
68681;DHT22;55836;49.858;6.756;2023-09-12T02:59:05;17.80;99.90
68681;DHT22;55836;49.858;6.756;2023-09-12T03:01:31;17.70;99.90
68681;DHT22;55836;49.858;6.756;2023-09-12T03:03:57;17.70;99.90
68681;DHT22;55836;49.858;6.756;2023-09-12T03:06:23;17.70;99.90
68681;DHT22;55836;49.858;6.756;2023-09-12T03:08:49;17.70;99.90
68681;DHT22;55836;49.858;6.756;2023-09-12T03:11:15;17.70;99.90
68681;DHT22;55836;49.858;6.756;2023-09-12T03:13:41;17.70;99.90
68681;DHT22;55836;49.858;6.756;2023-09-12T03:16:14;17.60;99.90
68681;DHT22;55836;49.858;6.756;2023-09-12T03:18:40;17.50;99.90
68681;DHT22;55836;49.858;6.756;2023-09-12T03:21:06;17.50;99.90
68681;DHT22;55836;49.858;6.756;2023-09-12T03:23:32;17.70;99.90
68681;DHT22;55836;49.858;6.756;2023-09-12T03:26:02;17.80;99.90
68681;DHT22;55836;49.858;6.756;2023-09-12T03:28:29;17.70;99.90
68681;DHT22;55836;49.858;6.756;2023-09-12T03:31:05;17.60;99.90
68681;DHT22;55836;49.858;6.756;2023-09-12T03:33:31;17.50;99.90
68681;DHT22;55836;49.858;6.756;2023-09-12T03:35:56;17.60;99.90
68681;DHT22;55836;49.858;6.756;2023-09-12T03:38:22;17.60;99.90
68681;DHT22;55836;49.858;6.756;2023-09-12T03:40:48;17.70;99.90
68681;DHT22;55836;49.858;6.756;2023-09-12T03:43:13;17.70;99.90
68681;DHT22;55836;49.858;6.756;2023-09-12T03:45:39;17.80;99.90
68681;DHT22;55836;49.858;6.756;2023-09-12T03:48:05;17.90;99.90
68681;DHT22;55836;49.858;6.756;2023-09-12T03:50:30;18.00;99.90
68681;DHT22;55836;49.858;6.756;2023-09-12T03:52:56;18.00;99.90
68681;DHT22;55836;49.858;6.756;2023-09-12T03:55:22;17.90;99.90
68681;DHT22;55836;49.858;6.756;2023-09-12T03:57:47;17.90;99.90
68681;DHT22;55836;49.858;6.756;2023-09-12T04:00:13;17.80;99.90
68681;DHT22;55836;49.858;6.756;2023-09-12T04:02:39;17.70;99.90
68681;DHT22;55836;49.858;6.756;2023-09-12T04:05:05;17.70;99.90
68681;DHT22;55836;49.858;6.756;2023-09-12T04:07:31;17.80;99.90
68681;DHT22;55836;49.858;6.756;2023-09-12T04:09:56;17.80;99.90
68681;DHT22;55836;49.858;6.756;2023-09-12T04:12:22;17.70;99.90
68681;DHT22;55836;49.858;6.756;2023-09-12T04:14:49;17.70;99.90
68681;DHT22;55836;49.858;6.756;2023-09-12T04:17:15;17.80;99.90
68681;DHT22;55836;49.858;6.756;2023-09-12T04:19:41;17.80;99.90
68681;DHT22;55836;49.858;6.756;2023-09-12T04:22:06;17.90;99.90
68681;DHT22;55836;49.858;6.756;2023-09-12T04:24:32;17.90;99.90
68681;DHT22;55836;49.858;6.756;2023-09-12T04:26:57;17.80;99.90
68681;DHT22;55836;49.858;6.756;2023-09-12T04:29:23;17.90;99.90
68681;DHT22;55836;49.858;6.756;2023-09-12T04:31:49;18.10;99.90
68681;DHT22;55836;49.858;6.756;2023-09-12T04:34:15;18.10;99.90
68681;DHT22;55836;49.858;6.756;2023-09-12T04:36:41;17.90;99.90
68681;DHT22;55836;49.858;6.756;2023-09-12T04:39:06;17.70;99.90
68681;DHT22;55836;49.858;6.756;2023-09-12T04:41:32;17.60;99.90
68681;DHT22;55836;49.858;6.756;2023-09-12T04:43:58;17.50;99.90
68681;DHT22;55836;49.858;6.756;2023-09-12T04:46:25;17.40;99.90
68681;DHT22;55836;49.858;6.756;2023-09-12T04:48:50;17.20;99.90
68681;DHT22;55836;49.858;6.756;2023-09-12T04:51:16;17.20;99.90
68681;DHT22;55836;49.858;6.756;2023-09-12T04:53:41;17.20;99.90
68681;DHT22;55836;49.858;6.756;2023-09-12T04:56:07;17.10;99.90
68681;DHT22;55836;49.858;6.756;2023-09-12T04:58:35;17.10;99.90
68681;DHT22;55836;49.858;6.756;2023-09-12T05:01:00;17.10;99.90
68681;DHT22;55836;49.858;6.756;2023-09-12T05:03:26;17.10;99.90
68681;DHT22;55836;49.858;6.756;2023-09-12T05:05:52;17.10;99.90
68681;DHT22;55836;49.858;6.756;2023-09-12T05:08:17;17.00;99.90
68681;DHT22;55836;49.858;6.756;2023-09-12T05:10:47;17.00;99.90
68681;DHT22;55836;49.858;6.756;2023-09-12T05:13:13;16.90;99.90
68681;DHT22;55836;49.858;6.756;2023-09-12T05:15:41;17.00;99.90
68681;DHT22;55836;49.858;6.756;2023-09-12T05:18:07;16.90;99.90
68681;DHT22;55836;49.858;6.756;2023-09-12T05:20:33;17.00;99.90
68681;DHT22;55836;49.858;6.756;2023-09-12T05:22:58;17.10;99.90
68681;DHT22;55836;49.858;6.756;2023-09-12T05:25:24;17.10;99.90
68681;DHT22;55836;49.858;6.756;2023-09-12T05:27:50;17.20;99.90
68681;DHT22;55836;49.858;6.756;2023-09-12T05:30:15;17.30;99.90
68681;DHT22;55836;49.858;6.756;2023-09-12T05:32:41;17.40;99.90
68681;DHT22;55836;49.858;6.756;2023-09-12T05:35:07;17.50;99.90
68681;DHT22;55836;49.858;6.756;2023-09-12T05:37:33;17.60;99.90
68681;DHT22;55836;49.858;6.756;2023-09-12T05:39:58;17.70;99.90
68681;DHT22;55836;49.858;6.756;2023-09-12T05:42:24;17.80;99.90
68681;DHT22;55836;49.858;6.756;2023-09-12T05:44:50;18.00;99.90
68681;DHT22;55836;49.858;6.756;2023-09-12T05:47:19;18.10;99.90
68681;DHT22;55836;49.858;6.756;2023-09-12T05:49:44;18.30;99.90
68681;DHT22;55836;49.858;6.756;2023-09-12T05:52:10;18.50;99.90
68681;DHT22;55836;49.858;6.756;2023-09-12T05:54:36;18.70;99.90
68681;DHT22;55836;49.858;6.756;2023-09-12T05:57:02;18.70;99.90
68681;DHT22;55836;49.858;6.756;2023-09-12T05:59:28;18.80;99.90
68681;DHT22;55836;49.858;6.756;2023-09-12T06:01:54;18.80;99.90
68681;DHT22;55836;49.858;6.756;2023-09-12T06:04:19;19.00;99.90
68681;DHT22;55836;49.858;6.756;2023-09-12T06:06:46;19.20;99.90
68681;DHT22;55836;49.858;6.756;2023-09-12T06:09:11;19.70;99.90
68681;DHT22;55836;49.858;6.756;2023-09-12T06:11:37;20.10;99.90
68681;DHT22;55836;49.858;6.756;2023-09-12T06:14:03;20.50;99.90
68681;DHT22;55836;49.858;6.756;2023-09-12T06:16:28;21.10;99.90
68681;DHT22;55836;49.858;6.756;2023-09-12T06:18:55;21.40;99.90
68681;DHT22;55836;49.858;6.756;2023-09-12T06:21:20;21.70;99.90
68681;DHT22;55836;49.858;6.756;2023-09-12T06:24:11;21.70;99.90
68681;DHT22;55836;49.858;6.756;2023-09-12T06:26:38;21.40;99.90
68681;DHT22;55836;49.858;6.756;2023-09-12T06:29:03;20.90;99.90
68681;DHT22;55836;49.858;6.756;2023-09-12T06:31:29;20.60;99.90
68681;DHT22;55836;49.858;6.756;2023-09-12T06:33:55;20.50;99.90
68681;DHT22;55836;49.858;6.756;2023-09-12T06:36:22;20.30;99.90
68681;DHT22;55836;49.858;6.756;2023-09-12T06:38:49;20.40;99.90
68681;DHT22;55836;49.858;6.756;2023-09-12T06:41:15;20.40;99.90
68681;DHT22;55836;49.858;6.756;2023-09-12T06:43:40;20.30;99.90
68681;DHT22;55836;49.858;6.756;2023-09-12T06:46:06;20.20;99.90
68681;DHT22;55836;49.858;6.756;2023-09-12T06:48:31;20.20;99.90
68681;DHT22;55836;49.858;6.756;2023-09-12T06:50:57;20.20;99.90
68681;DHT22;55836;49.858;6.756;2023-09-12T06:53:22;20.30;99.90
68681;DHT22;55836;49.858;6.756;2023-09-12T06:55:48;20.40;99.90
68681;DHT22;55836;49.858;6.756;2023-09-12T06:58:14;20.50;99.90
68681;DHT22;55836;49.858;6.756;2023-09-12T07:00:39;20.60;99.90
68681;DHT22;55836;49.858;6.756;2023-09-12T07:03:05;20.70;99.90
68681;DHT22;55836;49.858;6.756;2023-09-12T07:05:31;20.80;99.90
68681;DHT22;55836;49.858;6.756;2023-09-12T07:07:56;20.80;99.90
68681;DHT22;55836;49.858;6.756;2023-09-12T07:10:22;20.90;99.90
68681;DHT22;55836;49.858;6.756;2023-09-12T07:12:48;21.00;99.90
68681;DHT22;55836;49.858;6.756;2023-09-12T07:15:14;21.00;99.90
68681;DHT22;55836;49.858;6.756;2023-09-12T07:17:39;21.10;99.90
68681;DHT22;55836;49.858;6.756;2023-09-12T07:20:06;21.20;99.90
68681;DHT22;55836;49.858;6.756;2023-09-12T07:22:37;21.30;99.90
68681;DHT22;55836;49.858;6.756;2023-09-12T07:25:22;21.30;99.90
68681;DHT22;55836;49.858;6.756;2023-09-12T07:28:34;21.30;99.90
68681;DHT22;55836;49.858;6.756;2023-09-12T07:31:08;21.50;99.90
68681;DHT22;55836;49.858;6.756;2023-09-12T07:33:40;21.60;99.90
68681;DHT22;55836;49.858;6.756;2023-09-12T07:36:15;21.80;99.90
68681;DHT22;55836;49.858;6.756;2023-09-12T07:38:44;21.80;99.90
68681;DHT22;55836;49.858;6.756;2023-09-12T07:41:32;21.80;99.90
68681;DHT22;55836;49.858;6.756;2023-09-12T07:44:07;22.00;99.90
68681;DHT22;55836;49.858;6.756;2023-09-12T07:46:43;22.20;99.90
68681;DHT22;55836;49.858;6.756;2023-09-12T07:49:39;22.30;99.90
68681;DHT22;55836;49.858;6.756;2023-09-12T07:52:05;22.20;99.90
68681;DHT22;55836;49.858;6.756;2023-09-12T07:58:07;22.30;99.90
68681;DHT22;55836;49.858;6.756;2023-09-12T08:00:48;22.30;99.90
68681;DHT22;55836;49.858;6.756;2023-09-12T08:05:56;22.20;99.90
68681;DHT22;55836;49.858;6.756;2023-09-12T08:08:22;22.40;99.90
68681;DHT22;55836;49.858;6.756;2023-09-12T08:10:48;22.70;99.90
68681;DHT22;55836;49.858;6.756;2023-09-12T08:13:14;22.70;99.90
68681;DHT22;55836;49.858;6.756;2023-09-12T08:15:40;22.70;99.90
68681;DHT22;55836;49.858;6.756;2023-09-12T08:18:05;22.80;99.90
68681;DHT22;55836;49.858;6.756;2023-09-12T08:20:31;22.80;99.90
68681;DHT22;55836;49.858;6.756;2023-09-12T08:22:59;22.80;99.90
68681;DHT22;55836;49.858;6.756;2023-09-12T08:25:24;22.80;99.90
68681;DHT22;55836;49.858;6.756;2023-09-12T08:27:50;22.70;99.90
68681;DHT22;55836;49.858;6.756;2023-09-12T08:30:16;22.60;99.90
68681;DHT22;55836;49.858;6.756;2023-09-12T08:32:42;22.70;99.90
68681;DHT22;55836;49.858;6.756;2023-09-12T08:35:11;22.80;99.90
68681;DHT22;55836;49.858;6.756;2023-09-12T08:37:38;22.90;99.90
68681;DHT22;55836;49.858;6.756;2023-09-12T08:40:05;22.90;99.90
68681;DHT22;55836;49.858;6.756;2023-09-12T08:42:42;22.80;99.90
68681;DHT22;55836;49.858;6.756;2023-09-12T08:45:18;22.70;99.90
68681;DHT22;55836;49.858;6.756;2023-09-12T08:47:45;22.90;99.90
68681;DHT22;55836;49.858;6.756;2023-09-12T08:50:13;23.10;99.90
68681;DHT22;55836;49.858;6.756;2023-09-12T08:56:18;23.10;99.90
68681;DHT22;55836;49.858;6.756;2023-09-12T08:59:08;23.10;99.90
68681;DHT22;55836;49.858;6.756;2023-09-12T09:01:54;23.00;99.90
68681;DHT22;55836;49.858;6.756;2023-09-12T09:04:38;22.90;99.90
68681;DHT22;55836;49.858;6.756;2023-09-12T09:07:10;23.00;99.90
68681;DHT22;55836;49.858;6.756;2023-09-12T09:09:46;23.10;99.90
68681;DHT22;55836;49.858;6.756;2023-09-12T09:12:11;23.30;99.90
68681;DHT22;55836;49.858;6.756;2023-09-12T09:18:15;23.00;99.90
68681;DHT22;55836;49.858;6.756;2023-09-12T09:20:41;23.20;99.90
68681;DHT22;55836;49.858;6.756;2023-09-12T09:26:11;23.50;99.90
68681;DHT22;55836;49.858;6.756;2023-09-12T09:29:05;23.60;99.90
68681;DHT22;55836;49.858;6.756;2023-09-12T09:31:48;23.80;99.90
68681;DHT22;55836;49.858;6.756;2023-09-12T09:34:38;24.00;99.90
68681;DHT22;55836;49.858;6.756;2023-09-12T09:37:32;24.30;99.90
68681;DHT22;55836;49.858;6.756;2023-09-12T09:40:23;24.20;99.90
68681;DHT22;55836;49.858;6.756;2023-09-12T09:50:02;24.30;99.90
68681;DHT22;55836;49.858;6.756;2023-09-12T09:53:16;24.70;99.90
68681;DHT22;55836;49.858;6.756;2023-09-12T09:56:16;25.00;99.90
68681;DHT22;55836;49.858;6.756;2023-09-12T09:59:03;25.20;99.90
68681;DHT22;55836;49.858;6.756;2023-09-12T10:01:48;25.50;99.90
68681;DHT22;55836;49.858;6.756;2023-09-12T10:04:27;25.80;99.90
68681;DHT22;55836;49.858;6.756;2023-09-12T10:10:20;26.30;99.90
68681;DHT22;55836;49.858;6.756;2023-09-12T10:13:03;26.10;99.90
68681;DHT22;55836;49.858;6.756;2023-09-12T10:15:50;26.00;99.90
68681;DHT22;55836;49.858;6.756;2023-09-12T10:18:49;25.80;99.90
68681;DHT22;55836;49.858;6.756;2023-09-12T10:24:30;25.40;99.90
68681;DHT22;55836;49.858;6.756;2023-09-12T10:26:57;25.40;99.90
68681;DHT22;55836;49.858;6.756;2023-09-12T10:29:29;25.40;99.90
68681;DHT22;55836;49.858;6.756;2023-09-12T10:31:56;25.40;99.90
68681;DHT22;55836;49.858;6.756;2023-09-12T10:34:39;25.60;99.90
68681;DHT22;55836;49.858;6.756;2023-09-12T10:40:31;26.10;99.90
68681;DHT22;55836;49.858;6.756;2023-09-12T10:46:25;26.40;99.90
68681;DHT22;55836;49.858;6.756;2023-09-12T10:55:18;26.10;99.90
68681;DHT22;55836;49.858;6.756;2023-09-12T11:01:26;26.10;99.90
68681;DHT22;55836;49.858;6.756;2023-09-12T11:06:49;26.20;99.90
68681;DHT22;55836;49.858;6.756;2023-09-12T11:09:21;26.20;99.90
68681;DHT22;55836;49.858;6.756;2023-09-12T11:11:49;26.20;99.90
68681;DHT22;55836;49.858;6.756;2023-09-12T11:14:34;26.30;99.90
68681;DHT22;55836;49.858;6.756;2023-09-12T11:19:45;26.40;99.90
68681;DHT22;55836;49.858;6.756;2023-09-12T11:22:27;26.50;99.90
68681;DHT22;55836;49.858;6.756;2023-09-12T11:24:54;26.50;99.90
68681;DHT22;55836;49.858;6.756;2023-09-12T11:27:23;26.60;99.90
68681;DHT22;55836;49.858;6.756;2023-09-12T11:29:49;27.10;99.90
68681;DHT22;55836;49.858;6.756;2023-09-12T11:32:36;27.40;99.90
68681;DHT22;55836;49.858;6.756;2023-09-12T11:35:09;27.00;99.90
68681;DHT22;55836;49.858;6.756;2023-09-12T11:37:35;26.70;99.90
68681;DHT22;55836;49.858;6.756;2023-09-12T11:42:43;27.70;99.90
68681;DHT22;55836;49.858;6.756;2023-09-12T11:45:09;27.70;99.90
68681;DHT22;55836;49.858;6.756;2023-09-12T11:47:40;27.30;99.90
68681;DHT22;55836;49.858;6.756;2023-09-12T11:50:06;27.10;99.90
68681;DHT22;55836;49.858;6.756;2023-09-12T11:52:36;27.00;99.90
68681;DHT22;55836;49.858;6.756;2023-09-12T11:55:03;27.00;99.90
68681;DHT22;55836;49.858;6.756;2023-09-12T11:57:29;26.70;99.90
68681;DHT22;55836;49.858;6.756;2023-09-12T11:59:56;26.50;99.90
68681;DHT22;55836;49.858;6.756;2023-09-12T12:02:22;26.20;99.90
68681;DHT22;55836;49.858;6.756;2023-09-12T12:04:48;26.50;99.90
68681;DHT22;55836;49.858;6.756;2023-09-12T12:07:15;26.40;99.90
68681;DHT22;55836;49.858;6.756;2023-09-12T12:09:41;26.50;99.90
68681;DHT22;55836;49.858;6.756;2023-09-12T12:12:11;26.70;99.90
68681;DHT22;55836;49.858;6.756;2023-09-12T12:14:39;26.80;99.90
68681;DHT22;55836;49.858;6.756;2023-09-12T12:17:06;26.80;99.90
68681;DHT22;55836;49.858;6.756;2023-09-12T12:19:32;26.90;99.90
68681;DHT22;55836;49.858;6.756;2023-09-12T12:21:58;26.90;99.90
68681;DHT22;55836;49.858;6.756;2023-09-12T12:24:24;27.00;99.90
68681;DHT22;55836;49.858;6.756;2023-09-12T12:26:49;26.80;99.90
68681;DHT22;55836;49.858;6.756;2023-09-12T12:29:15;27.00;99.90
68681;DHT22;55836;49.858;6.756;2023-09-12T12:31:40;27.10;99.90
68681;DHT22;55836;49.858;6.756;2023-09-12T12:34:06;26.80;99.90
68681;DHT22;55836;49.858;6.756;2023-09-12T12:36:32;26.90;99.90
68681;DHT22;55836;49.858;6.756;2023-09-12T12:38:58;26.80;99.90
68681;DHT22;55836;49.858;6.756;2023-09-12T12:41:28;27.00;99.90
68681;DHT22;55836;49.858;6.756;2023-09-12T12:43:56;27.00;99.90
68681;DHT22;55836;49.858;6.756;2023-09-12T12:46:26;26.90;99.90
68681;DHT22;55836;49.858;6.756;2023-09-12T12:48:51;26.80;99.90
68681;DHT22;55836;49.858;6.756;2023-09-12T12:51:25;27.20;99.90
68681;DHT22;55836;49.858;6.756;2023-09-12T12:53:55;27.30;99.90
68681;DHT22;55836;49.858;6.756;2023-09-12T12:56:27;27.40;99.90
68681;DHT22;55836;49.858;6.756;2023-09-12T12:58:57;27.50;99.90
68681;DHT22;55836;49.858;6.756;2023-09-12T13:01:24;27.70;99.90
68681;DHT22;55836;49.858;6.756;2023-09-12T13:03:50;27.80;99.90
68681;DHT22;55836;49.858;6.756;2023-09-12T13:06:17;27.70;99.90
68681;DHT22;55836;49.858;6.756;2023-09-12T13:08:44;27.90;99.90
68681;DHT22;55836;49.858;6.756;2023-09-12T13:11:10;28.00;99.90
68681;DHT22;55836;49.858;6.756;2023-09-12T13:13:37;27.90;99.90
68681;DHT22;55836;49.858;6.756;2023-09-12T13:16:04;28.00;99.90
68681;DHT22;55836;49.858;6.756;2023-09-12T13:18:35;28.00;99.90
68681;DHT22;55836;49.858;6.756;2023-09-12T13:21:01;28.00;99.90
68681;DHT22;55836;49.858;6.756;2023-09-12T13:23:28;28.10;99.90
68681;DHT22;55836;49.858;6.756;2023-09-12T13:25:55;28.00;99.90
68681;DHT22;55836;49.858;6.756;2023-09-12T13:28:21;28.20;99.90
68681;DHT22;55836;49.858;6.756;2023-09-12T13:30:53;28.60;99.90
68681;DHT22;55836;49.858;6.756;2023-09-12T13:33:19;28.60;99.90
68681;DHT22;55836;49.858;6.756;2023-09-12T13:35:48;28.20;99.90
68681;DHT22;55836;49.858;6.756;2023-09-12T13:38:14;28.00;99.90
68681;DHT22;55836;49.858;6.756;2023-09-12T13:40:44;27.80;99.90
68681;DHT22;55836;49.858;6.756;2023-09-12T13:43:10;27.90;99.90
68681;DHT22;55836;49.858;6.756;2023-09-12T13:45:36;27.60;99.90
68681;DHT22;55836;49.858;6.756;2023-09-12T13:48:05;27.70;99.90
68681;DHT22;55836;49.858;6.756;2023-09-12T13:50:31;27.90;99.90
68681;DHT22;55836;49.858;6.756;2023-09-12T13:53:03;27.90;99.90
68681;DHT22;55836;49.858;6.756;2023-09-12T13:55:35;28.00;99.90
68681;DHT22;55836;49.858;6.756;2023-09-12T13:58:05;28.10;99.90
68681;DHT22;55836;49.858;6.756;2023-09-12T14:00:32;27.90;99.90
68681;DHT22;55836;49.858;6.756;2023-09-12T14:02:58;27.70;99.90
68681;DHT22;55836;49.858;6.756;2023-09-12T14:05:24;27.80;99.90
68681;DHT22;55836;49.858;6.756;2023-09-12T14:07:50;27.80;99.90
68681;DHT22;55836;49.858;6.756;2023-09-12T14:10:16;27.90;99.90
68681;DHT22;55836;49.858;6.756;2023-09-12T14:12:42;27.90;99.90
68681;DHT22;55836;49.858;6.756;2023-09-12T14:15:10;27.80;99.90
68681;DHT22;55836;49.858;6.756;2023-09-12T14:17:36;27.70;99.90
68681;DHT22;55836;49.858;6.756;2023-09-12T14:20:02;27.80;99.90
68681;DHT22;55836;49.858;6.756;2023-09-12T14:22:28;28.00;99.90
68681;DHT22;55836;49.858;6.756;2023-09-12T14:24:54;28.20;99.90
68681;DHT22;55836;49.858;6.756;2023-09-12T14:27:20;28.30;99.90
68681;DHT22;55836;49.858;6.756;2023-09-12T14:29:46;28.50;99.90
68681;DHT22;55836;49.858;6.756;2023-09-12T14:32:14;28.60;99.90
68681;DHT22;55836;49.858;6.756;2023-09-12T14:34:40;28.60;99.90
68681;DHT22;55836;49.858;6.756;2023-09-12T14:37:05;28.60;99.90
68681;DHT22;55836;49.858;6.756;2023-09-12T14:39:31;28.30;99.90
68681;DHT22;55836;49.858;6.756;2023-09-12T14:41:56;27.90;99.90
68681;DHT22;55836;49.858;6.756;2023-09-12T14:44:22;27.70;99.90
68681;DHT22;55836;49.858;6.756;2023-09-12T14:46:48;27.60;99.90
68681;DHT22;55836;49.858;6.756;2023-09-12T14:49:15;27.60;99.90
68681;DHT22;55836;49.858;6.756;2023-09-12T14:51:41;27.60;99.90
68681;DHT22;55836;49.858;6.756;2023-09-12T14:54:07;27.70;99.90
68681;DHT22;55836;49.858;6.756;2023-09-12T14:56:33;27.70;99.90
68681;DHT22;55836;49.858;6.756;2023-09-12T14:59:00;27.70;99.90
68681;DHT22;55836;49.858;6.756;2023-09-12T15:01:26;27.70;99.90
68681;DHT22;55836;49.858;6.756;2023-09-12T15:03:52;27.50;99.90
68681;DHT22;55836;49.858;6.756;2023-09-12T15:06:18;27.30;99.90
68681;DHT22;55836;49.858;6.756;2023-09-12T15:08:44;27.00;99.90
68681;DHT22;55836;49.858;6.756;2023-09-12T15:11:09;26.90;99.90
68681;DHT22;55836;49.858;6.756;2023-09-12T15:13:39;26.90;99.90
68681;DHT22;55836;49.858;6.756;2023-09-12T15:16:04;26.90;99.90
68681;DHT22;55836;49.858;6.756;2023-09-12T15:18:31;27.00;99.90
68681;DHT22;55836;49.858;6.756;2023-09-12T15:20:57;27.00;99.90
68681;DHT22;55836;49.858;6.756;2023-09-12T15:23:26;27.10;99.90
68681;DHT22;55836;49.858;6.756;2023-09-12T15:25:52;27.10;99.90
68681;DHT22;55836;49.858;6.756;2023-09-12T15:28:17;27.00;99.90
68681;DHT22;55836;49.858;6.756;2023-09-12T15:30:43;27.00;99.90
68681;DHT22;55836;49.858;6.756;2023-09-12T15:33:10;26.90;99.90
68681;DHT22;55836;49.858;6.756;2023-09-12T15:35:35;26.80;99.90
68681;DHT22;55836;49.858;6.756;2023-09-12T15:38:02;26.70;99.90
68681;DHT22;55836;49.858;6.756;2023-09-12T15:40:28;26.70;99.90
68681;DHT22;55836;49.858;6.756;2023-09-12T15:42:53;26.70;99.90
68681;DHT22;55836;49.858;6.756;2023-09-12T15:45:19;26.70;99.90
68681;DHT22;55836;49.858;6.756;2023-09-12T15:47:46;26.70;99.90
68681;DHT22;55836;49.858;6.756;2023-09-12T15:50:11;26.50;99.90
68681;DHT22;55836;49.858;6.756;2023-09-12T15:52:38;26.40;99.90
68681;DHT22;55836;49.858;6.756;2023-09-12T15:55:07;26.30;99.90
68681;DHT22;55836;49.858;6.756;2023-09-12T15:57:34;26.20;99.90
68681;DHT22;55836;49.858;6.756;2023-09-12T16:00:05;26.10;99.90
68681;DHT22;55836;49.858;6.756;2023-09-12T16:02:40;26.00;99.90
68681;DHT22;55836;49.858;6.756;2023-09-12T16:05:06;25.90;99.90
68681;DHT22;55836;49.858;6.756;2023-09-12T16:07:32;25.90;99.90
68681;DHT22;55836;49.858;6.756;2023-09-12T16:09:58;25.80;99.90
68681;DHT22;55836;49.858;6.756;2023-09-12T16:12:24;25.90;99.90
68681;DHT22;55836;49.858;6.756;2023-09-12T16:14:54;25.90;99.90
68681;DHT22;55836;49.858;6.756;2023-09-12T16:17:22;25.90;99.90
68681;DHT22;55836;49.858;6.756;2023-09-12T16:19:48;25.80;99.90
68681;DHT22;55836;49.858;6.756;2023-09-12T16:22:13;25.80;99.90
68681;DHT22;55836;49.858;6.756;2023-09-12T16:24:39;25.70;99.90
68681;DHT22;55836;49.858;6.756;2023-09-12T16:27:04;25.60;99.90
68681;DHT22;55836;49.858;6.756;2023-09-12T16:29:30;25.50;99.90
68681;DHT22;55836;49.858;6.756;2023-09-12T16:31:55;25.40;99.90
68681;DHT22;55836;49.858;6.756;2023-09-12T16:34:21;25.30;99.90